Terminal Aerodrome Forecast
Issued by NWS Pocatello, ID

Home | Current Version | Previous Version | Text Only | Print | Product List | Glossary On
Versions: 1 2 3 4 5 6 7 8 9 10 11 12 13 14 15 16
000
FTUS45 KPIH 181200 AAA
TAFIDA
TAF AMD
KIDA 181205Z 1812/1912 20020G30KT P6SM VCSH SCT070 OVC100
      TEMPO 1812/1816 6SM -SHRA BKN015 OVC040
     FM182100 22018G28KT P6SM SCT025 BKN050
     FM190300 20012KT P6SM FEW080 SCT120=

USA.gov is the U.S. government's official web portal to all federal, state and local government web resources and services.